Time;durP1;ratioP1;P1;durP2;ratioP2;P2;SDS_P1;SDS_P2;PMS_P1;PMS_P2;Temp;Humidity;BMP_temperature;BMP_pressure;BME280_temperature;BME280_humidity;BME280_pressure;Samples;Min_cycle;Max_cycle;Signal;HPM_P1;HPM_P2
2021/12/03 00:04:24;;;;;;;16.15;8.60;;;;;;;-0.97;100.00;97529.94;10282541;28;20126;-65
2021/12/03 00:09:33;;;;;;;13.77;7.82;;;;;;;-1.02;100.00;97552.38;10281321;28;20528;-64
2021/12/03 00:14:37;;;;;;;15.45;8.23;;;;;;;-1.17;100.00;97562.22;10282148;28;20090;-64
2021/12/03 00:19:41;;;;;;;13.07;8.43;;;;;;;-1.23;100.00;97574.09;10281929;28;20070;-65
2021/12/03 00:24:44;;;;;;;18.40;9.20;;;;;;;-1.22;100.00;97582.84;10281675;28;20566;-64
2021/12/03 00:29:47;;;;;;;18.48;8.43;;;;;;;-1.23;100.00;97602.31;10280166;28;20125;-64
2021/12/03 00:34:52;;;;;;;15.85;8.98;;;;;;;-1.19;100.00;97599.34;10279672;28;20096;-64
2021/12/03 00:39:55;;;;;;;19.00;9.57;;;;;;;-1.19;100.00;97601.13;10281139;28;20043;-64
2021/12/03 00:44:58;;;;;;;21.02;9.45;;;;;;;-1.28;100.00;97606.13;10282011;28;20096;-64
2021/12/03 00:50:04;;;;;;;17.83;9.00;;;;;;;-1.31;100.00;97613.44;10281653;28;20100;-64
2021/12/03 00:55:08;;;;;;;17.13;9.45;;;;;;;-1.32;100.00;97609.91;10278340;28;20095;-64
2021/12/03 01:00:15;;;;;;;16.88;9.10;;;;;;;-1.35;100.00;97604.84;10280766;28;20554;-64
2021/12/03 01:05:21;;;;;;;16.33;8.68;;;;;;;-1.48;100.00;97610.13;10279106;28;20062;-64
2021/12/03 01:10:25;;;;;;;16.92;9.23;;;;;;;-1.57;100.00;97598.41;10279891;28;20064;-63
2021/12/03 01:15:31;;;;;;;15.27;8.65;;;;;;;-1.68;100.00;97595.66;10281365;28;20213;-63
2021/12/03 01:20:37;;;;;;;18.20;9.63;;;;;;;-1.53;100.00;97601.72;10280671;28;20051;-63
2021/12/03 01:25:41;;;;;;;21.15;9.32;;;;;;;-1.71;100.00;97602.00;10275087;28;20074;-63
2021/12/03 01:30:44;;;;;;;17.80;8.80;;;;;;;-1.77;100.00;97604.22;10279783;28;20125;-60
2021/12/03 01:35:49;;;;;;;15.40;8.48;;;;;;;-1.84;100.00;97603.78;10277949;28;20524;-58
2021/12/03 01:40:52;;;;;;;16.90;9.32;;;;;;;-1.94;100.00;97600.06;10278211;28;20047;-59
2021/12/03 01:45:58;;;;;;;16.80;8.60;;;;;;;-2.07;100.00;97606.16;10275812;28;20449;-60
2021/12/03 01:51:04;;;;;;;18.65;8.63;;;;;;;-2.19;100.00;97594.66;10276763;28;20082;-60
2021/12/03 01:56:11;;;;;;;20.23;8.68;;;;;;;-2.29;100.00;97595.34;10275095;28;20122;-61
2021/12/03 02:01:18;;;;;;;18.35;7.63;;;;;;;-2.28;100.00;97600.50;10277116;28;20057;-62
2021/12/03 02:06:37;;;;;;;13.18;7.32;;;;;;;-2.36;100.00;97605.47;10276005;28;20051;-61
2021/12/03 02:11:43;;;;;;;13.48;6.43;;;;;;;-2.32;100.00;97607.78;10366899;22;20109;-85
2021/12/03 02:16:46;;;;;;;13.57;6.43;;;;;;;-2.36;100.00;97618.66;10425761;28;20041;-84
2021/12/03 02:21:51;;;;;;;12.15;6.20;;;;;;;-2.43;100.00;97606.81;10452651;28;20045;-80
2021/12/03 02:26:57;;;;;;;13.32;6.55;;;;;;;-2.49;100.00;97622.06;10446847;28;20075;-83
2021/12/03 02:32:07;;;;;;;15.23;7.03;;;;;;;-2.52;100.00;97624.91;10448623;28;20049;-87
2021/12/03 02:37:12;;;;;;;14.23;7.15;;;;;;;-2.61;100.00;97625.50;10423234;28;20227;-79
2021/12/03 02:42:16;;;;;;;15.05;7.35;;;;;;;-2.65;100.00;97634.56;10427635;28;20064;-79
2021/12/03 02:47:19;;;;;;;15.77;8.30;;;;;;;-2.67;100.00;97639.09;10445141;28;20045;-81
2021/12/03 02:52:24;;;;;;;18.58;8.23;;;;;;;-2.79;100.00;97654.75;10434833;28;20470;-79
2021/12/03 02:57:27;;;;;;;13.45;7.25;;;;;;;-2.85;100.00;97652.47;10438505;28;20098;-79
2021/12/03 03:02:30;;;;;;;14.00;7.30;;;;;;;-2.87;100.00;97656.16;10445444;28;20062;-81
2021/12/03 03:07:35;;;;;;;16.55;7.30;;;;;;;-2.95;100.00;97651.38;10462447;28;20152;-81
2021/12/03 03:12:39;;;;;;;18.98;7.85;;;;;;;-2.95;100.00;97664.53;10426456;28;20061;-81
2021/12/03 03:17:49;;;;;;;15.40;7.22;;;;;;;-3.03;100.00;97659.75;10432089;28;20056;-83
2021/12/03 03:22:59;;;;;;;14.95;7.28;;;;;;;-3.13;100.00;97651.59;10446969;28;20125;-82
2021/12/03 03:28:05;;;;;;;14.45;7.07;;;;;;;-3.15;100.00;97664.00;10447822;28;20049;-81
2021/12/03 03:33:10;;;;;;;15.57;7.65;;;;;;;-3.20;100.00;97665.22;10449895;28;20087;-81
2021/12/03 03:38:17;;;;;;;14.32;7.80;;;;;;;-3.26;100.00;97667.28;10452452;28;20059;-82
2021/12/03 03:43:23;;;;;;;15.82;7.82;;;;;;;-3.31;100.00;97664.09;10450406;28;20059;-81
2021/12/03 03:48:26;;;;;;;21.40;8.55;;;;;;;-3.36;100.00;97652.16;10467594;28;20140;-81
2021/12/03 03:53:30;;;;;;;15.48;7.95;;;;;;;-3.44;100.00;97658.69;10434209;28;20147;-82
2021/12/03 03:58:33;;;;;;;21.92;8.52;;;;;;;-3.50;100.00;97669.63;10441752;28;20041;-80
2021/12/03 04:03:37;;;;;;;18.35;8.32;;;;;;;-3.54;100.00;97681.25;10445399;28;20807;-81
2021/12/03 04:08:42;;;;;;;17.08;8.13;;;;;;;-3.55;100.00;97684.81;10450530;28;20299;-81
2021/12/03 04:13:49;;;;;;;15.60;7.68;;;;;;;-3.59;100.00;97688.59;10441854;28;20061;-81
2021/12/03 04:18:52;;;;;;;14.13;7.55;;;;;;;-3.63;100.00;97693.19;10449654;28;20468;-80
2021/12/03 04:23:57;;;;;;;22.73;8.48;;;;;;;-3.67;100.00;97693.44;10446145;28;20049;-81
2021/12/03 04:29:00;;;;;;;16.80;7.70;;;;;;;-3.70;100.00;97699.75;10457407;28;20065;-80
2021/12/03 04:34:04;;;;;;;18.83;8.50;;;;;;;-3.70;100.00;97705.00;10456927;28;20046;-80
2021/12/03 04:39:09;;;;;;;15.88;8.43;;;;;;;-3.72;100.00;97706.88;10451259;28;20051;-79
2021/12/03 04:44:12;;;;;;;24.10;9.55;;;;;;;-3.74;100.00;97704.34;10442419;28;20041;-80
2021/12/03 04:49:15;;;;;;;22.77;9.45;;;;;;;-3.76;100.00;97708.84;10447193;28;20072;-81
2021/12/03 04:54:20;;;;;;;21.95;9.45;;;;;;;-3.80;100.00;97731.00;10439408;28;20046;-81
2021/12/03 04:59:23;;;;;;;17.15;8.07;;;;;;;-3.86;100.00;97734.00;10443336;28;20056;-81
2021/12/03 05:04:26;;;;;;;18.75;9.88;;;;;;;-3.90;100.00;97724.59;10448212;28;20551;-81
2021/12/03 05:09:31;;;;;;;25.45;11.38;;;;;;;-3.93;100.00;97737.91;10442457;28;20073;-81
2021/12/03 05:14:35;;;;;;;23.13;10.65;;;;;;;-3.93;100.00;97743.16;10453761;28;20434;-80
2021/12/03 05:19:38;;;;;;;25.67;10.93;;;;;;;-3.97;100.00;97754.81;10443106;28;20087;-81
2021/12/03 05:24:46;;;;;;;22.88;10.32;;;;;;;-4.03;100.00;97751.59;10437130;28;20097;-78
2021/12/03 05:29:50;;;;;;;24.60;11.38;;;;;;;-4.02;100.00;97758.56;10454868;28;20081;-79
2021/12/03 05:34:53;;;;;;;25.50;10.63;;;;;;;-4.05;100.00;97758.72;10454095;28;20065;-79
2021/12/03 05:39:57;;;;;;;23.83;10.93;;;;;;;-4.08;100.00;97761.53;10447384;28;20072;-79
2021/12/03 05:45:00;;;;;;;22.90;10.02;;;;;;;-4.11;100.00;97764.34;10438672;28;20081;-80
2021/12/03 05:50:04;;;;;;;18.27;9.38;;;;;;;-4.14;100.00;97772.41;10428320;28;20037;-80
2021/12/03 05:55:10;;;;;;;20.33;9.07;;;;;;;-4.19;100.00;97777.09;10433051;28;20491;-81
2021/12/03 06:00:17;;;;;;;18.98;8.80;;;;;;;-4.24;100.00;97777.34;10428568;28;21049;-79
2021/12/03 06:05:22;;;;;;;16.55;8.40;;;;;;;-4.26;100.00;97783.59;10447319;28;20045;-79
2021/12/03 06:10:27;;;;;;;14.77;7.90;;;;;;;-4.31;100.00;97783.00;10438767;28;20104;-79
2021/12/03 06:15:30;;;;;;;21.42;9.02;;;;;;;-4.37;100.00;97789.47;10443843;28;20053;-80
2021/12/03 06:20:33;;;;;;;14.25;7.93;;;;;;;-4.40;100.00;97790.44;10436070;28;20041;-81
2021/12/03 06:25:38;;;;;;;17.13;8.27;;;;;;;-4.43;100.00;97788.00;10432353;28;20513;-79
2021/12/03 06:30:41;;;;;;;13.20;6.30;;;;;;;-4.47;100.00;97783.00;10435151;28;20135;-81
2021/12/03 06:35:44;;;;;;;11.85;6.03;;;;;;;-4.50;100.00;97789.25;10428673;28;20107;-79
2021/12/03 06:40:50;;;;;;;12.35;5.43;;;;;;;-4.54;100.00;97790.38;10438831;28;20049;-81
2021/12/03 06:45:53;;;;;;;11.48;5.63;;;;;;;-4.55;100.00;97801.81;10439105;28;20064;-79
2021/12/03 06:50:57;;;;;;;8.00;4.38;;;;;;;-4.56;100.00;97805.38;10432864;28;20049;-79
2021/12/03 06:56:05;;;;;;;11.70;4.78;;;;;;;-4.57;100.00;97817.66;10471681;28;20048;-82
2021/12/03 07:01:08;;;;;;;9.63;3.95;;;;;;;-4.56;100.00;97816.72;10428232;28;20045;-80
2021/12/03 07:06:13;;;;;;;4.38;2.10;;;;;;;-4.52;100.00;97820.03;10418941;28;20045;-82
2021/12/03 07:11:18;;;;;;;3.42;1.50;;;;;;;-4.36;100.00;97809.56;10430431;28;20077;-79
2021/12/03 07:16:21;;;;;;;3.00;1.60;;;;;;;-4.26;100.00;97809.91;10429581;28;20392;-83
2021/12/03 07:21:25;;;;;;;3.72;1.98;;;;;;;-4.18;100.00;97831.38;10423614;28;20075;-81
2021/12/03 07:26:29;;;;;;;5.65;2.08;;;;;;;-4.07;100.00;97834.28;10424001;28;20045;-80
2021/12/03 07:31:33;;;;;;;3.70;2.00;;;;;;;-4.00;100.00;97826.03;10430280;28;20057;-82
2021/12/03 07:36:36;;;;;;;3.40;1.90;;;;;;;-3.95;100.00;97830.09;10437705;28;20059;-82
2021/12/03 07:41:41;;;;;;;4.32;2.03;;;;;;;-3.91;100.00;97822.88;10425980;28;20049;-80
2021/12/03 07:46:44;;;;;;;3.42;1.90;;;;;;;-3.83;100.00;97822.47;10438343;28;20467;-80
2021/12/03 07:51:47;;;;;;;4.88;2.40;;;;;;;-3.79;100.00;97822.19;10428945;28;20073;-82
2021/12/03 07:56:51;;;;;;;3.95;2.42;;;;;;;-3.74;100.00;97830.69;10444651;28;20041;-80
2021/12/03 08:01:54;;;;;;;5.35;2.78;;;;;;;-3.66;100.00;97826.78;10431204;28;20075;-80
2021/12/03 08:06:59;;;;;;;7.38;3.60;;;;;;;-3.63;100.00;97834.50;10424431;28;20045;-81
2021/12/03 08:12:05;;;;;;;5.35;2.80;;;;;;;-3.60;100.00;97839.59;10435416;28;20140;-82
2021/12/03 08:17:09;;;;;;;5.43;2.40;;;;;;;-3.60;100.00;97853.59;10438177;28;20547;-81
2021/12/03 08:22:12;;;;;;;3.42;2.50;;;;;;;-3.58;100.00;97856.13;10443212;28;20047;-80
2021/12/03 08:27:16;;;;;;;9.25;4.25;;;;;;;-3.55;100.00;97866.50;10437744;28;20033;-80
2021/12/03 08:32:20;;;;;;;3.50;2.03;;;;;;;-3.49;100.00;97873.22;10435101;28;20068;-82
2021/12/03 08:37:23;;;;;;;4.07;2.35;;;;;;;-3.42;100.00;97875.41;10435487;28;20079;-81
2021/12/03 08:42:27;;;;;;;6.30;2.75;;;;;;;-3.37;100.00;97885.69;10435687;28;20049;-82
2021/12/03 08:47:30;;;;;;;5.55;3.10;;;;;;;-3.31;100.00;97890.63;10435186;28;20419;-81
2021/12/03 08:57:55;;;;;;;7.40;3.78;;;;;;;-3.06;100.00;97890.97;10438914;28;20065;-81
2021/12/03 09:02:58;;;;;;;6.28;3.78;;;;;;;-2.94;100.00;97896.38;10442354;28;20508;-80
2021/12/03 09:08:06;;;;;;;7.88;3.75;;;;;;;-2.84;100.00;97895.84;10439513;28;20044;-81
2021/12/03 09:13:17;;;;;;;6.43;3.90;;;;;;;-2.72;100.00;97897.78;10429784;28;20091;-80
2021/12/03 09:18:29;;;;;;;7.88;3.88;;;;;;;-2.63;100.00;97899.00;10452476;28;20025;-82
2021/12/03 09:24:08;;;;;;;4.88;3.22;;;;;;;-2.55;100.00;97898.53;10435260;28;20385;-81
2021/12/03 09:29:16;;;;;;;6.30;3.00;;;;;;;-2.41;100.00;97910.91;10430258;28;20495;-80
2021/12/03 09:34:20;;;;;;;4.78;3.08;;;;;;;-2.30;100.00;97897.91;10426352;28;20571;-81
2021/12/03 09:39:24;;;;;;;4.88;3.08;;;;;;;-2.21;100.00;97888.56;10425327;28;20056;-80
2021/12/03 09:44:30;;;;;;;4.93;3.20;;;;;;;-2.08;100.00;97871.03;10433212;28;20056;-81
2021/12/03 09:49:35;;;;;;;8.52;4.40;;;;;;;-1.95;100.00;97884.34;10430914;28;20065;-80
2021/12/03 09:54:41;;;;;;;7.68;4.30;;;;;;;-1.84;100.00;97875.72;10429051;28;20045;-81
2021/12/03 10:11:31;;;;;;;6.55;4.43;;;;;;;-1.53;100.00;97865.88;10429589;28;20056;-80
2021/12/03 10:16:42;;;;;;;9.32;5.10;;;;;;;-1.42;100.00;97858.09;10433357;28;20566;-80
2021/12/03 10:22:07;;;;;;;8.18;5.47;;;;;;;-1.31;100.00;97867.94;10428175;28;20498;-81
2021/12/03 10:32:55;;;;;;;8.07;4.78;;;;;;;-1.23;100.00;97846.28;10416507;28;20052;-82
2021/12/03 10:48:48;;;;;;;7.03;4.20;;;;;;;-0.87;100.00;97825.41;10437058;28;20041;-82
2021/12/03 10:53:57;;;;;;;7.35;4.57;;;;;;;-0.76;100.00;97809.66;10444739;28;20061;-81
2021/12/03 10:59:29;;;;;;;6.32;4.32;;;;;;;-0.67;100.00;97798.47;10436562;28;20135;-81
2021/12/03 11:33:34;;;;;;;6.75;4.30;;;;;;;0.03;100.00;97795.41;10428798;28;20129;-80
2021/12/03 11:37:40;;;;;;;5.13;4.00;;;;;;;0.14;100.00;97769.81;10425184;28;20073;-80
2021/12/03 11:59:51;;;;;;;7.97;4.03;;;;;;;0.52;100.00;97746.78;10424345;28;20141;-80
2021/12/03 14:10:03;;;;;;;10.77;5.00;;;;;;;0.59;100.00;97663.16;10457794;28;20049;-80
2021/12/03 14:37:14;;;;;;;10.23;5.35;;;;;;;0.52;100.00;97659.31;10417783;28;20049;-79
2021/12/03 14:53:54;;;;;;;9.95;5.28;;;;;;;0.45;100.00;97666.03;10418770;28;20565;-80
2021/12/03 14:59:10;;;;;;;8.98;5.70;;;;;;;0.39;100.00;97656.72;10419228;28;20034;-80
2021/12/03 15:09:39;;;;;;;9.23;6.13;;;;;;;0.37;100.00;97679.00;10415979;28;20050;-82
2021/12/03 15:20:27;;;;;;;;;;;;;;;0.30;100.00;97668.03;10425458;28;20034;-81
2021/12/03 15:25:44;;;;;;;10.27;5.50;;;;;;;0.32;100.00;97658.16;10433549;28;19927;-82
2021/12/03 15:30:55;;;;;;;9.02;5.68;;;;;;;0.28;100.00;97654.91;10449355;28;20443;-82
2021/12/03 15:36:05;;;;;;;10.27;5.18;;;;;;;0.26;100.00;97643.56;10439114;28;20492;-83
2021/12/03 15:58:00;;;;;;;9.55;5.90;;;;;;;0.12;100.00;97612.81;10452467;28;20462;-82
2021/12/03 16:08:27;;;;;;;7.55;5.13;;;;;;;0.01;100.00;97593.41;10425668;28;20069;-84
2021/12/03 16:13:43;;;;;;;6.65;4.40;;;;;;;-0.06;100.00;97599.16;10422665;28;20052;-81
2021/12/03 16:19:05;;;;;;;12.32;4.60;;;;;;;-0.13;100.00;97597.94;10470255;28;20060;-79
2021/12/03 16:46:18;;;;;;;7.45;4.57;;;;;;;-0.35;100.00;97594.22;10347736;28;20049;-80
2021/12/03 16:51:28;;;;;;;7.10;4.20;;;;;;;-0.38;100.00;97599.75;10432129;28;20076;-80
2021/12/03 16:56:31;;;;;;;6.57;3.90;;;;;;;-0.43;100.00;97596.59;10424124;28;20054;-79
2021/12/03 17:01:39;;;;;;;8.48;4.25;;;;;;;-0.45;100.00;97597.66;10423506;28;20136;-80
2021/12/03 17:07:25;;;;;;;6.93;3.95;;;;;;;-0.46;100.00;97596.81;10426800;28;20042;-78
2021/12/03 17:45:43;;;;;;;7.18;3.90;;;;;;;-0.57;100.00;97581.72;10431685;28;20145;-80
2021/12/03 17:51:01;;;;;;;11.45;4.45;;;;;;;-0.56;100.00;97575.47;10436651;28;20136;-74
2021/12/03 17:56:10;;;;;;;12.15;4.47;;;;;;;-0.47;100.00;97558.09;10405208;28;20046;-74
2021/12/03 18:01:18;;;;;;;8.65;4.05;;;;;;;-0.38;100.00;97567.97;10394415;28;20037;-76
2021/12/03 18:55:08;;;;;;;14.10;4.97;;;;;;;-0.14;100.00;97442.69;10433745;28;20052;-81
2021/12/03 19:00:16;;;;;;;8.05;4.35;;;;;;;-0.15;100.00;97430.41;10436873;28;20052;-83
2021/12/03 19:05:27;;;;;;;12.02;4.40;;;;;;;-0.16;100.00;97426.06;10436183;28;20045;-82
2021/12/03 19:10:36;;;;;;;7.65;4.13;;;;;;;-0.18;100.00;97425.38;10441795;28;20106;-81
2021/12/03 19:15:41;;;;;;;10.57;4.45;;;;;;;-0.21;100.00;97434.38;10430213;28;20038;-82
2021/12/03 19:20:44;;;;;;;10.05;4.43;;;;;;;-0.26;100.00;97422.44;10431986;28;20048;-82
2021/12/03 19:25:52;;;;;;;9.23;4.50;;;;;;;-0.25;100.00;97418.84;10439067;28;20135;-80
2021/12/03 19:30:56;;;;;;;10.02;4.45;;;;;;;-0.27;100.00;97402.25;10432999;28;20033;-80
2021/12/03 19:35:59;;;;;;;10.43;4.50;;;;;;;-0.29;100.00;97393.59;10451280;28;20072;-79
2021/12/03 19:41:12;;;;;;;9.43;4.45;;;;;;;-0.32;100.00;97387.56;10434674;28;20515;-78
2021/12/03 19:46:19;;;;;;;10.15;4.90;;;;;;;-0.32;100.00;97384.94;10431145;28;20076;-79
2021/12/03 19:51:25;;;;;;;12.48;5.10;;;;;;;-0.36;100.00;97380.81;10425376;28;20041;-82
2021/12/03 19:56:32;;;;;;;9.52;4.38;;;;;;;-0.38;100.00;97389.84;10444187;28;20132;-80
2021/12/03 20:01:35;;;;;;;10.73;4.80;;;;;;;-0.38;100.00;97373.97;10436804;28;20049;-81
2021/12/03 20:06:41;;;;;;;11.02;4.80;;;;;;;-0.38;100.00;97371.31;10419040;28;20060;-79
2021/12/03 20:11:48;;;;;;;8.48;4.93;;;;;;;-0.38;100.00;97358.94;10437372;28;20124;-82
2021/12/03 20:16:57;;;;;;;9.75;5.00;;;;;;;-0.32;100.00;97355.81;10438133;28;20084;-82
2021/12/03 20:22:04;;;;;;;8.45;4.55;;;;;;;-0.25;100.00;97357.97;10435013;28;20041;-81
2021/12/03 20:27:11;;;;;;;11.30;5.05;;;;;;;-0.18;100.00;97340.66;10454062;28;20560;-81
2021/12/03 20:32:20;;;;;;;12.07;4.88;;;;;;;-0.19;100.00;97338.97;10439751;28;20171;-81
2021/12/03 20:37:24;;;;;;;10.07;5.20;;;;;;;-0.19;100.00;97333.69;10452953;28;20077;-78
2021/12/03 20:42:32;;;;;;;7.97;5.10;;;;;;;-0.19;100.00;97339.81;10461355;28;20049;-80
2021/12/03 20:53:16;;;;;;;6.78;4.30;;;;;;;-0.12;100.00;97344.63;10471116;28;20037;-79
2021/12/03 21:09:18;;;;;;;6.53;3.97;;;;;;;0.07;100.00;97313.09;10449509;28;20041;-80
2021/12/03 21:14:26;;;;;;;9.55;4.80;;;;;;;0.09;100.00;97299.72;10465739;28;20047;-79
2021/12/03 21:19:37;;;;;;;8.18;4.03;;;;;;;0.13;100.00;97280.78;10429339;28;20046;-81
2021/12/03 21:24:42;;;;;;;8.10;4.28;;;;;;;0.12;100.00;97281.75;10433621;28;20037;-82
2021/12/03 21:30:03;;;;;;;10.88;4.30;;;;;;;0.13;100.00;97272.84;10445029;28;20044;-81
2021/12/03 21:45:47;;;;;;;10.85;4.70;;;;;;;0.19;100.00;97249.50;10432759;28;20063;-81
2021/12/03 21:50:51;;;;;;;10.30;4.50;;;;;;;0.18;100.00;97230.09;10440322;28;20043;-81
2021/12/03 21:55:54;;;;;;;7.40;4.05;;;;;;;0.15;100.00;97227.72;10430082;28;20115;-81
2021/12/03 22:00:59;;;;;;;6.28;3.67;;;;;;;0.19;100.00;97237.06;10452785;28;20072;-78
2021/12/03 22:06:03;;;;;;;8.82;4.00;;;;;;;0.17;100.00;97232.88;10434013;28;20487;-79
2021/12/03 22:11:06;;;;;;;7.63;3.75;;;;;;;0.18;100.00;97223.97;10434650;28;20053;-79
2021/12/03 22:16:10;;;;;;;10.07;3.88;;;;;;;0.20;100.00;97238.75;10433149;28;20072;-80
2021/12/03 22:21:14;;;;;;;8.55;3.50;;;;;;;0.23;100.00;97233.22;10440822;28;20060;-81
2021/12/03 22:26:18;;;;;;;7.65;3.83;;;;;;;0.23;100.00;97219.16;10430171;28;20503;-79
2021/12/03 22:31:23;;;;;;;7.75;3.42;;;;;;;0.23;100.00;97212.03;10433316;28;20097;-81
2021/12/03 22:36:26;;;;;;;6.82;3.10;;;;;;;0.27;100.00;97210.81;10429476;28;20045;-81
2021/12/03 22:41:29;;;;;;;4.68;2.97;;;;;;;0.29;100.00;97216.81;10440988;28;20055;-81
2021/12/03 22:46:42;;;;;;;7.55;3.05;;;;;;;0.35;100.00;97215.50;10437428;28;20168;-81
2021/12/03 22:51:57;;;;;;;4.93;2.58;;;;;;;0.41;100.00;97222.09;10438400;28;20525;-81
2021/12/03 22:57:00;;;;;;;5.68;2.53;;;;;;;0.42;100.00;97207.84;10435580;28;20140;-81
2021/12/03 23:02:05;;;;;;;6.22;3.00;;;;;;;0.41;100.00;97198.25;10444133;28;20100;-82
2021/12/03 23:07:09;;;;;;;5.55;2.90;;;;;;;0.43;100.00;97191.84;10434616;28;20053;-82
2021/12/03 23:12:12;;;;;;;5.63;2.92;;;;;;;0.47;100.00;97170.41;10438618;28;20404;-81
2021/12/03 23:17:17;;;;;;;6.38;3.00;;;;;;;0.49;100.00;97158.69;10443932;28;20499;-82
2021/12/03 23:22:20;;;;;;;4.53;2.72;;;;;;;0.52;100.00;97163.75;10439091;28;20041;-79
2021/12/03 23:27:23;;;;;;;4.80;2.50;;;;;;;0.52;100.00;97147.84;10436746;28;20114;-80
2021/12/03 23:32:28;;;;;;;8.23;2.60;;;;;;;0.53;100.00;97146.03;10442159;28;20559;-81
2021/12/03 23:37:31;;;;;;;3.80;2.38;;;;;;;0.52;100.00;97147.00;10431423;28;20048;-80
2021/12/03 23:42:34;;;;;;;5.32;2.55;;;;;;;0.52;100.00;97142.53;10466838;28;20041;-80
2021/12/03 23:47:38;;;;;;;5.68;2.75;;;;;;;0.52;100.00;97126.66;10468191;28;20057;-81
2021/12/03 23:52:41;;;;;;;5.90;2.83;;;;;;;0.54;100.00;97127.34;10445444;28;20135;-80
2021/12/03 23:57:44;;;;;;;5.75;2.80;;;;;;;0.51;100.00;97114.38;10453239;28;20083;-80
